<?xml version="1.0" encoding="UTF-8"?>
<gpx xmlns="http://www.topografix.com/GPX/1/1" xmlns:gpsies="https://www.gpsies.com/GPX/1/0" creator="AllTrails https://www.alltrails.com/ - Gpsies_ivvpw" version="1.1" xmlns:xsi="http://www.w3.org/2001/XMLSchema-instance" xsi:schemaLocation="http://www.topografix.com/GPX/1/1 http://www.topografix.com/GPX/1/1/gpx.xsd https://www.gpsies.com/GPX/1/0 https://www.gpsies.com/gpsies.xsd">
  <metadata>
    <name>Gpsies_ivvpw</name>
    <link href="https://www.gpsies.com/">
      <text>Gpsies_ivvpw on AllTrails</text>
    </link>
    <time>2020-02-19T20:01:52Z</time>
  </metadata>
  <trk>
    <name>DVV Köln-Typisch Kölsch</name>
    <link href="https://www.gpsies.com/map.do?fileId=tudycihcmiigxzsp">
      <type>trackOnWeb</type>
    </link>
    <link href="https://www.gpsies.com/charts/tu/map/tudycihcmiigxzsp_map.png">
      <type>elevationChartUrlMap</type>
    </link>
    <link href="https://www.gpsies.com/charts/tu/mapThumb/tudycihcmiigxzsp_mapThumb.png">
      <type>elevationChartUrlMapThumb</type>
    </link>
    <link href="https://www.gpsies.com/charts/tu/tab/tudycihcmiigxzsp_tab.png">
      <type>elevationChartUrlTab</type>
    </link>
    <trkseg>
      <trkpt lat="50.94803180" lon="6.956837470">
        <ele>55.000000</ele>
      </trkpt>
      <trkpt lat="50.94906940" lon="6.956974260">
        <ele>55.000000</ele>
      </trkpt>
      <trkpt lat="50.94916400" lon="6.956901840">
        <ele>55.000000</ele>
      </trkpt>
      <trkpt lat="50.94934650" lon="6.956934030">
        <ele>55.000000</ele>
      </trkpt>
      <trkpt lat="50.94965070" lon="6.956925980">
        <ele>56.000000</ele>
      </trkpt>
      <trkpt lat="50.95023530" lon="6.956925980">
        <ele>56.000000</ele>
      </trkpt>
      <trkpt lat="50.95030120" lon="6.956901840">
        <ele>56.000000</ele>
      </trkpt>
      <trkpt lat="50.95044660" lon="6.956877700">
        <ele>53.000000</ele>
      </trkpt>
      <trkpt lat="50.95056320" lon="6.956912570">
        <ele>53.000000</ele>
      </trkpt>
      <trkpt lat="50.95063750" lon="6.957001090">
        <ele>53.000000</ele>
      </trkpt>
      <trkpt lat="50.95076930" lon="6.957357820">
        <ele>53.000000</ele>
      </trkpt>
      <trkpt lat="50.95080820" lon="6.957612630">
        <ele>53.000000</ele>
      </trkpt>
      <trkpt lat="50.95097550" lon="6.957617990">
        <ele>53.000000</ele>
      </trkpt>
      <trkpt lat="50.95100760" lon="6.957170060">
        <ele>53.000000</ele>
      </trkpt>
      <trkpt lat="50.95111740" lon="6.957153970">
        <ele>53.000000</ele>
      </trkpt>
      <trkpt lat="50.95161590" lon="6.957258580">
        <ele>53.000000</ele>
      </trkpt>
      <trkpt lat="50.95340700" lon="6.957446330">
        <ele>58.000000</ele>
      </trkpt>
      <trkpt lat="50.95387840" lon="6.957474490">
        <ele>56.000000</ele>
      </trkpt>
      <trkpt lat="50.95414530" lon="6.957542890">
        <ele>56.000000</ele>
      </trkpt>
      <trkpt lat="50.95426110" lon="6.957624700">
        <ele>56.000000</ele>
      </trkpt>
      <trkpt lat="50.95449930" lon="6.957786970">
        <ele>56.000000</ele>
      </trkpt>
      <trkpt lat="50.95489890" lon="6.958112860">
        <ele>58.000000</ele>
      </trkpt>
      <trkpt lat="50.95498420" lon="6.958173210">
        <ele>58.000000</ele>
      </trkpt>
      <trkpt lat="50.95504510" lon="6.958187960">
        <ele>58.000000</ele>
      </trkpt>
      <trkpt lat="50.95519040" lon="6.958029710">
        <ele>58.000000</ele>
      </trkpt>
      <trkpt lat="50.95544780" lon="6.957799100">
        <ele>53.000000</ele>
      </trkpt>
      <trkpt lat="50.95550040" lon="6.957660910">
        <ele>53.000000</ele>
      </trkpt>
      <trkpt lat="50.95563730" lon="6.957813790">
        <ele>53.000000</ele>
      </trkpt>
      <trkpt lat="50.95583660" lon="6.957813790">
        <ele>53.000000</ele>
      </trkpt>
      <trkpt lat="50.95674900" lon="6.957867440">
        <ele>56.000000</ele>
      </trkpt>
      <trkpt lat="50.95749410" lon="6.957980090">
        <ele>50.000000</ele>
      </trkpt>
      <trkpt lat="50.95742840" lon="6.958237300">
        <ele>50.000000</ele>
        <time>2009-03-28T21:17:55Z</time>
      </trkpt>
      <trkpt lat="50.95693160" lon="6.960225400">
        <ele>54.000000</ele>
        <time>2009-03-28T21:18:49Z</time>
      </trkpt>
      <trkpt lat="50.95681210" lon="6.960816500">
        <ele>53.000000</ele>
        <time>2009-03-28T21:19:04Z</time>
      </trkpt>
      <trkpt lat="50.95676180" lon="6.961177400">
        <ele>53.000000</ele>
        <time>2009-03-28T21:19:14Z</time>
      </trkpt>
      <trkpt lat="50.95676180" lon="6.961200400">
        <ele>53.000000</ele>
        <time>2009-03-28T21:19:14Z</time>
      </trkpt>
      <trkpt lat="50.95673040" lon="6.961530500">
        <ele>51.000000</ele>
        <time>2009-03-28T21:19:23Z</time>
      </trkpt>
      <trkpt lat="50.95694840" lon="6.961668130">
        <ele>51.000000</ele>
        <time>2009-03-28T21:19:30Z</time>
      </trkpt>
      <trkpt lat="50.95706830" lon="6.961826380">
        <ele>51.000000</ele>
        <time>2009-03-28T21:19:55Z</time>
      </trkpt>
      <trkpt lat="50.95714100" lon="6.962561300">
        <ele>54.000000</ele>
        <time>2009-03-28T21:20:15Z</time>
      </trkpt>
      <trkpt lat="50.95730820" lon="6.963486670">
        <ele>51.000000</ele>
        <time>2009-03-28T21:20:45Z</time>
      </trkpt>
      <trkpt lat="50.95724400" lon="6.964387900">
        <ele>49.000000</ele>
        <time>2009-03-28T21:21:08Z</time>
      </trkpt>
      <trkpt lat="50.95718240" lon="6.965293100">
        <ele>49.000000</ele>
        <time>2009-03-28T21:21:31Z</time>
      </trkpt>
      <trkpt lat="50.95712660" lon="6.966117900">
        <ele>47.000000</ele>
        <time>2009-03-28T21:21:52Z</time>
      </trkpt>
      <trkpt lat="50.95708010" lon="6.966945400">
        <ele>50.000000</ele>
        <time>2009-03-28T21:22:13Z</time>
      </trkpt>
      <trkpt lat="50.95703540" lon="6.967304800">
        <ele>49.000000</ele>
        <time>2009-03-28T21:22:22Z</time>
      </trkpt>
      <trkpt lat="50.95616780" lon="6.968246300">
        <ele>48.000000</ele>
        <time>2009-03-28T21:23:04Z</time>
      </trkpt>
      <trkpt lat="50.95609340" lon="6.968400500">
        <ele>48.000000</ele>
        <time>2009-03-28T21:23:09Z</time>
      </trkpt>
      <trkpt lat="50.95596930" lon="6.968608300">
        <ele>48.000000</ele>
        <time>2009-03-28T21:23:16Z</time>
      </trkpt>
      <trkpt lat="50.95584760" lon="6.968670000">
        <ele>48.000000</ele>
        <time>2009-03-28T21:23:21Z</time>
      </trkpt>
      <trkpt lat="50.95585100" lon="6.968790700">
        <ele>47.000000</ele>
        <time>2009-03-28T21:23:25Z</time>
      </trkpt>
      <trkpt lat="50.95563220" lon="6.969008000">
        <ele>47.000000</ele>
        <time>2009-03-28T21:23:35Z</time>
      </trkpt>
      <trkpt lat="50.95548940" lon="6.969210500">
        <ele>47.000000</ele>
        <time>2009-03-28T21:23:43Z</time>
      </trkpt>
      <trkpt lat="50.95514310" lon="6.969611500">
        <ele>50.000000</ele>
        <time>2009-03-28T21:24:00Z</time>
      </trkpt>
      <trkpt lat="50.95422140" lon="6.970665100">
        <ele>50.000000</ele>
        <time>2009-03-28T21:24:45Z</time>
      </trkpt>
      <trkpt lat="50.95414450" lon="6.970712500">
        <ele>50.000000</ele>
        <time>2009-03-28T21:24:48Z</time>
      </trkpt>
      <trkpt lat="50.95410900" lon="6.970703200">
        <ele>50.000000</ele>
        <time>2009-03-28T21:24:50Z</time>
      </trkpt>
      <trkpt lat="50.95397550" lon="6.970988800">
        <ele>50.000000</ele>
        <time>2009-03-28T21:24:59Z</time>
      </trkpt>
      <trkpt lat="50.95398310" lon="6.971155100">
        <ele>50.000000</ele>
        <time>2009-03-28T21:25:03Z</time>
      </trkpt>
      <trkpt lat="50.95390880" lon="6.971298600">
        <ele>39.000000</ele>
        <time>2009-03-28T21:25:08Z</time>
      </trkpt>
      <trkpt lat="50.95246500" lon="6.969478700">
        <ele>45.000000</ele>
        <time>2009-03-28T21:26:22Z</time>
      </trkpt>
      <trkpt lat="50.95153310" lon="6.968435300">
        <ele>44.000000</ele>
        <time>2009-03-28T21:27:07Z</time>
      </trkpt>
      <trkpt lat="50.95064090" lon="6.967528800">
        <ele>49.000000</ele>
        <time>2009-03-28T21:27:50Z</time>
      </trkpt>
      <trkpt lat="50.94987040" lon="6.966828700">
        <ele>46.000000</ele>
        <time>2009-03-28T21:28:25Z</time>
      </trkpt>
      <trkpt lat="50.94883450" lon="6.965966400">
        <ele>48.000000</ele>
        <time>2009-03-28T21:29:12Z</time>
      </trkpt>
      <trkpt lat="50.94832420" lon="6.965584200">
        <ele>43.000000</ele>
        <time>2009-03-28T21:29:35Z</time>
      </trkpt>
      <trkpt lat="50.94726040" lon="6.964858600">
        <ele>42.000000</ele>
        <time>2009-03-28T21:30:21Z</time>
      </trkpt>
      <trkpt lat="50.94624310" lon="6.964299400">
        <ele>37.000000</ele>
        <time>2009-03-28T21:31:04Z</time>
      </trkpt>
      <trkpt lat="50.94534060" lon="6.963847400">
        <ele>37.000000</ele>
        <time>2009-03-28T21:31:42Z</time>
      </trkpt>
      <trkpt lat="50.94434860" lon="6.963445100">
        <ele>39.000000</ele>
        <time>2009-03-28T21:32:23Z</time>
      </trkpt>
      <trkpt lat="50.94337100" lon="6.963155400">
        <ele>38.000000</ele>
        <time>2009-03-28T21:33:03Z</time>
      </trkpt>
      <trkpt lat="50.94262310" lon="6.963020000">
        <ele>41.000000</ele>
        <time>2009-03-28T21:33:33Z</time>
      </trkpt>
      <trkpt lat="50.94214230" lon="6.962943500">
        <ele>41.000000</ele>
        <time>2009-03-28T21:33:52Z</time>
      </trkpt>
      <trkpt lat="50.94150090" lon="6.962915400">
        <ele>49.000000</ele>
        <time>2009-03-28T21:34:18Z</time>
      </trkpt>
      <trkpt lat="50.94064570" lon="6.962897900">
        <ele>46.000000</ele>
        <time>2009-03-28T21:34:52Z</time>
      </trkpt>
      <trkpt lat="50.94000850" lon="6.962889900">
        <ele>48.000000</ele>
        <time>2009-03-28T21:35:18Z</time>
      </trkpt>
      <trkpt lat="50.93847640" lon="6.963041420">
        <ele>42.000000</ele>
        <time>2009-03-28T21:36:26Z</time>
      </trkpt>
      <trkpt lat="50.93841050" lon="6.962255530">
        <ele>51.000000</ele>
        <time>2009-03-28T21:36:37Z</time>
      </trkpt>
      <trkpt lat="50.93823300" lon="6.962215300">
        <ele>51.000000</ele>
        <time>2009-03-28T21:36:52Z</time>
      </trkpt>
      <trkpt lat="50.93798280" lon="6.962276990">
        <ele>51.000000</ele>
        <time>2009-03-28T21:36:57Z</time>
      </trkpt>
      <trkpt lat="50.93764480" lon="6.962336000">
        <ele>50.000000</ele>
      </trkpt>
      <trkpt lat="50.93762030" lon="6.962020800">
        <ele>55.000000</ele>
        <time>2009-03-28T21:37:20Z</time>
      </trkpt>
      <trkpt lat="50.93757210" lon="6.961719090">
        <ele>55.000000</ele>
        <time>2009-03-28T21:37:31Z</time>
      </trkpt>
      <trkpt lat="50.93723410" lon="6.961804920">
        <ele>55.000000</ele>
        <time>2009-03-28T21:37:40Z</time>
      </trkpt>
      <trkpt lat="50.93720360" lon="6.961407950">
        <ele>55.000000</ele>
        <time>2009-03-28T21:37:44Z</time>
      </trkpt>
      <trkpt lat="50.93718840" lon="6.960984170">
        <ele>54.000000</ele>
        <time>2009-03-28T21:37:46Z</time>
      </trkpt>
      <trkpt lat="50.93730170" lon="6.960957340">
        <ele>54.000000</ele>
        <time>2009-03-28T21:37:51Z</time>
      </trkpt>
      <trkpt lat="50.93735410" lon="6.960938570">
        <ele>54.000000</ele>
      </trkpt>
      <trkpt lat="50.93741490" lon="6.960876880">
        <ele>54.000000</ele>
      </trkpt>
      <trkpt lat="50.93781720" lon="6.960777640">
        <ele>54.000000</ele>
        <time>2009-03-28T21:38:05Z</time>
      </trkpt>
      <trkpt lat="50.93780370" lon="6.960337750">
        <ele>54.000000</ele>
        <time>2009-03-28T21:38:16Z</time>
      </trkpt>
      <trkpt lat="50.93804200" lon="6.960308250">
        <ele>55.000000</ele>
        <time>2009-03-28T21:38:31Z</time>
      </trkpt>
      <trkpt lat="50.93852540" lon="6.960246560">
        <ele>55.000000</ele>
        <time>2009-03-28T21:38:51Z</time>
      </trkpt>
      <trkpt lat="50.93856930" lon="6.960753500">
        <ele>56.000000</ele>
      </trkpt>
      <trkpt lat="50.93817890" lon="6.960823230">
        <ele>56.000000</ele>
      </trkpt>
      <trkpt lat="50.93857100" lon="6.960753500">
        <ele>56.000000</ele>
      </trkpt>
      <trkpt lat="50.93852710" lon="6.960243880">
        <ele>55.000000</ele>
      </trkpt>
      <trkpt lat="50.93905370" lon="6.960010400">
        <ele>57.000000</ele>
        <time>2009-03-28T21:39:13Z</time>
      </trkpt>
      <trkpt lat="50.93912630" lon="6.959900600">
        <ele>57.000000</ele>
        <time>2009-03-28T21:39:17Z</time>
      </trkpt>
      <trkpt lat="50.93915920" lon="6.959806700">
        <ele>57.000000</ele>
        <time>2009-03-28T21:39:19Z</time>
      </trkpt>
      <trkpt lat="50.93919220" lon="6.959526400">
        <ele>56.000000</ele>
        <time>2009-03-28T21:39:27Z</time>
      </trkpt>
      <trkpt lat="50.93924120" lon="6.959511600">
        <ele>56.000000</ele>
        <time>2009-03-28T21:39:29Z</time>
      </trkpt>
      <trkpt lat="50.93960880" lon="6.959572000">
        <ele>59.000000</ele>
        <time>2009-03-28T21:39:43Z</time>
      </trkpt>
      <trkpt lat="50.93970680" lon="6.959584100">
        <ele>57.000000</ele>
        <time>2009-03-28T21:39:47Z</time>
      </trkpt>
      <trkpt lat="50.93975580" lon="6.959353400">
        <ele>59.000000</ele>
        <time>2009-03-28T21:39:53Z</time>
      </trkpt>
      <trkpt lat="50.93981920" lon="6.958556800">
        <ele>59.000000</ele>
        <time>2009-03-28T21:40:14Z</time>
      </trkpt>
      <trkpt lat="50.93983110" lon="6.958249700">
        <ele>59.000000</ele>
        <time>2009-03-28T21:40:21Z</time>
      </trkpt>
      <trkpt lat="50.94030770" lon="6.958157100">
        <ele>59.000000</ele>
        <time>2009-03-28T21:40:41Z</time>
      </trkpt>
      <trkpt lat="50.94072770" lon="6.957788300">
        <ele>60.000000</ele>
        <time>2009-03-28T21:41:00Z</time>
      </trkpt>
      <trkpt lat="50.94083160" lon="6.957651500">
        <ele>60.000000</ele>
        <time>2009-03-28T21:41:05Z</time>
      </trkpt>
      <trkpt lat="50.94089670" lon="6.957128500">
        <ele>60.000000</ele>
        <time>2009-03-28T21:41:19Z</time>
      </trkpt>
      <trkpt lat="50.94096430" lon="6.957022500">
        <ele>60.000000</ele>
        <time>2009-03-28T21:41:23Z</time>
      </trkpt>
      <trkpt lat="50.94150600" lon="6.956824100">
        <ele>59.000000</ele>
        <time>2009-03-28T21:41:45Z</time>
      </trkpt>
      <trkpt lat="50.94161670" lon="6.956803900">
        <ele>59.000000</ele>
        <time>2009-03-28T21:41:49Z</time>
      </trkpt>
      <trkpt lat="50.94159390" lon="6.956435100">
        <ele>59.000000</ele>
        <time>2009-03-28T21:41:59Z</time>
      </trkpt>
      <trkpt lat="50.94161750" lon="6.956047600">
        <ele>59.000000</ele>
        <time>2009-03-28T21:42:08Z</time>
      </trkpt>
      <trkpt lat="50.94175020" lon="6.956019400">
        <ele>59.000000</ele>
        <time>2009-03-28T21:42:14Z</time>
      </trkpt>
      <trkpt lat="50.94181360" lon="6.955959100">
        <ele>59.000000</ele>
        <time>2009-03-28T21:42:17Z</time>
      </trkpt>
      <trkpt lat="50.94234430" lon="6.955775300">
        <ele>60.000000</ele>
        <time>2009-03-28T21:42:38Z</time>
      </trkpt>
      <trkpt lat="50.94240930" lon="6.955717700">
        <ele>60.000000</ele>
        <time>2009-03-28T21:42:41Z</time>
      </trkpt>
      <trkpt lat="50.94245070" lon="6.955621100">
        <ele>60.000000</ele>
        <time>2009-03-28T21:42:44Z</time>
      </trkpt>
      <trkpt lat="50.94258170" lon="6.955689500">
        <ele>60.000000</ele>
        <time>2009-03-28T21:42:50Z</time>
      </trkpt>
      <trkpt lat="50.94258760" lon="6.955751200">
        <ele>60.000000</ele>
        <time>2009-03-28T21:42:51Z</time>
      </trkpt>
      <trkpt lat="50.94259690" lon="6.955816900">
        <ele>60.000000</ele>
        <time>2009-03-28T21:42:53Z</time>
      </trkpt>
      <trkpt lat="50.94263330" lon="6.955847700">
        <ele>60.000000</ele>
        <time>2009-03-28T21:42:55Z</time>
      </trkpt>
      <trkpt lat="50.94296870" lon="6.955902700">
        <ele>59.000000</ele>
        <time>2009-03-28T21:43:08Z</time>
      </trkpt>
      <trkpt lat="50.94316650" lon="6.955861200">
        <ele>59.000000</ele>
        <time>2009-03-28T21:43:16Z</time>
      </trkpt>
      <trkpt lat="50.94339290" lon="6.955819600">
        <ele>59.000000</ele>
        <time>2009-03-28T21:43:25Z</time>
      </trkpt>
      <trkpt lat="50.94361850" lon="6.955796800">
        <ele>59.000000</ele>
        <time>2009-03-28T21:43:34Z</time>
      </trkpt>
      <trkpt lat="50.94385350" lon="6.955826300">
        <ele>57.000000</ele>
        <time>2009-03-28T21:43:44Z</time>
      </trkpt>
      <trkpt lat="50.94407570" lon="6.956022080">
        <ele>57.000000</ele>
        <time>2009-03-28T21:44:03Z</time>
      </trkpt>
      <trkpt lat="50.94445430" lon="6.956137410">
        <ele>57.000000</ele>
        <time>2009-03-28T21:44:19Z</time>
      </trkpt>
      <trkpt lat="50.94478550" lon="6.956189700">
        <ele>55.000000</ele>
        <time>2009-03-28T21:44:24Z</time>
      </trkpt>
      <trkpt lat="50.94506100" lon="6.956208500">
        <ele>55.000000</ele>
        <time>2009-03-28T21:44:35Z</time>
      </trkpt>
      <trkpt lat="50.94542390" lon="6.956333600">
        <ele>54.000000</ele>
        <time>2009-03-28T21:44:49Z</time>
      </trkpt>
      <trkpt lat="50.94573200" lon="6.956379700">
        <ele>54.000000</ele>
        <time>2009-03-28T21:45:02Z</time>
      </trkpt>
      <trkpt lat="50.94626930" lon="6.956459280">
        <ele>56.000000</ele>
        <time>2009-03-28T21:45:24Z</time>
      </trkpt>
      <trkpt lat="50.94679570" lon="6.956549100">
        <ele>56.000000</ele>
        <time>2009-03-28T21:45:45Z</time>
      </trkpt>
      <trkpt lat="50.94735930" lon="6.956660400">
        <ele>56.000000</ele>
        <time>2009-03-28T21:46:07Z</time>
      </trkpt>
      <trkpt lat="50.94803180" lon="6.956837470">
        <ele>55.000000</ele>
        <time>2009-03-28T21:47:57Z</time>
      </trkpt>
    </trkseg>
  </trk>
</gpx>
